createdAt,value
2023-03-07T00:01:57.421Z,22.63
2023-03-07T00:04:26.316Z,15.15
2023-03-07T00:06:56.208Z,18.80
2023-03-07T00:09:23.692Z,22.05
2023-03-07T00:11:50.913Z,14.98
2023-03-07T00:14:18.432Z,14.38
2023-03-07T00:16:45.731Z,18.48
2023-03-07T00:19:13.283Z,12.90
2023-03-07T00:21:40.335Z,15.55
2023-03-07T00:24:07.629Z,17.77
2023-03-07T00:26:39.883Z,15.30
2023-03-07T00:29:08.710Z,12.65
2023-03-07T00:31:36.308Z,20.33
2023-03-07T00:34:04.278Z,13.20
2023-03-07T00:36:32.174Z,19.08
2023-03-07T00:38:59.221Z,15.32
2023-03-07T00:41:28.520Z,14.15
2023-03-07T00:43:56.500Z,15.60
2023-03-07T00:46:25.387Z,13.05
2023-03-07T00:48:53.535Z,11.73
2023-03-07T00:51:22.747Z,16.13
2023-03-07T00:53:51.038Z,15.98
2023-03-07T00:56:24.225Z,17.23
2023-03-07T00:58:52.409Z,14.50
2023-03-07T01:01:22.938Z,15.70
2023-03-07T01:03:53.989Z,14.32
2023-03-07T01:06:24.994Z,17.92
2023-03-07T01:08:54.389Z,16.33
2023-03-07T01:11:21.496Z,12.77
2023-03-07T01:13:48.636Z,12.27
2023-03-07T01:16:20.510Z,13.65
2023-03-07T01:18:53.956Z,10.57
2023-03-07T01:21:30.592Z,14.38
2023-03-07T01:24:00.015Z,9.55
2023-03-07T01:26:29.872Z,10.80
2023-03-07T01:29:00.548Z,9.07
2023-03-07T01:31:30.537Z,8.98
2023-03-07T01:33:59.434Z,11.48
2023-03-07T01:36:31.908Z,12.35
2023-03-07T01:39:14.745Z,14.57
2023-03-07T01:42:11.265Z,8.40
2023-03-07T01:45:08.466Z,9.63
2023-03-07T01:47:45.905Z,14.38
2023-03-07T01:50:17.784Z,11.18
2023-03-07T01:52:56.968Z,9.93
2023-03-07T01:55:28.561Z,15.20
2023-03-07T01:58:06.199Z,11.15
2023-03-07T02:00:36.365Z,12.68
2023-03-07T02:03:11.430Z,14.50
2023-03-07T02:05:47.681Z,13.00
2023-03-07T02:08:16.532Z,11.07
2023-03-07T02:10:44.232Z,10.32
2023-03-07T02:13:11.465Z,12.95
2023-03-07T02:15:40.180Z,16.25
2023-03-07T02:18:08.979Z,21.30
2023-03-07T02:20:57.646Z,11.40
2023-03-07T02:23:43.507Z,16.73
2023-03-07T02:26:28.521Z,14.98
2023-03-07T02:28:56.425Z,12.98
2023-03-07T02:31:24.200Z,14.70
2023-03-07T02:33:51.737Z,14.95
2023-03-07T02:36:32.715Z,15.85
2023-03-07T02:39:09.760Z,13.60
2023-03-07T02:41:38.482Z,16.50
2023-03-07T02:44:12.930Z,14.93
2023-03-07T02:46:40.445Z,18.42
2023-03-07T02:49:07.765Z,15.75
2023-03-07T02:51:36.282Z,18.95
2023-03-07T02:54:03.491Z,19.88
2023-03-07T02:56:31.298Z,21.15
2023-03-07T02:58:58.358Z,17.88
2023-03-07T03:01:26.009Z,23.40
2023-03-07T03:03:53.356Z,25.55
2023-03-07T03:06:20.450Z,19.85
2023-03-07T03:08:47.580Z,18.75
2023-03-07T03:11:14.729Z,18.33
2023-03-07T03:13:41.995Z,19.13
2023-03-07T03:16:09.287Z,14.10
2023-03-07T03:18:36.561Z,15.15
2023-03-07T03:21:08.754Z,15.82
2023-03-07T03:23:36.501Z,14.20
2023-03-07T03:26:11.387Z,10.98
2023-03-07T03:28:39.936Z,12.45
2023-03-07T03:31:10.404Z,14.50
2023-03-07T03:33:40.223Z,13.63
2023-03-07T03:36:14.868Z,17.27
2023-03-07T03:41:17.815Z,14.20
2023-03-07T03:43:47.275Z,18.52
2023-03-07T03:46:15.231Z,15.40
2023-03-07T03:48:42.648Z,17.00
2023-03-07T03:51:12.927Z,15.20
2023-03-07T03:53:40.499Z,14.40
2023-03-07T03:56:16.130Z,13.25
2023-03-07T03:58:44.354Z,14.18
2023-03-07T04:01:12.947Z,13.65
2023-03-07T04:03:46.686Z,16.05
2023-03-07T04:06:23.784Z,15.02
2023-03-07T04:08:53.116Z,10.80
2023-03-07T04:11:22.044Z,11.40
2023-03-07T04:13:49.792Z,10.77
2023-03-07T04:16:18.387Z,13.98
2023-03-07T04:18:45.851Z,10.63
2023-03-07T04:21:14.138Z,15.40
2023-03-07T04:23:42.097Z,8.73
2023-03-07T04:26:11.705Z,9.25
2023-03-07T04:28:43.327Z,17.17
2023-03-07T04:31:18.679Z,10.13
2023-03-07T04:33:46.865Z,11.05
2023-03-07T04:36:18.456Z,13.85
2023-03-07T04:38:51.050Z,10.95
2023-03-07T04:41:27.954Z,11.52
2023-03-07T04:44:09.870Z,10.35
2023-03-07T04:46:38.356Z,11.30
2023-03-07T04:49:06.461Z,15.57
2023-03-07T04:51:34.997Z,14.35
2023-03-07T04:54:02.905Z,8.30
2023-03-07T04:56:30.107Z,14.57
2023-03-07T04:58:58.397Z,20.23
2023-03-07T05:01:27.292Z,13.60
2023-03-07T05:03:55.482Z,20.77
2023-03-07T05:06:23.738Z,17.77
2023-03-07T05:08:52.986Z,13.95
2023-03-07T05:11:20.369Z,11.85
2023-03-07T05:13:48.565Z,11.10
2023-03-07T05:16:19.151Z,10.95
2023-03-07T05:18:46.739Z,14.90
2023-03-07T05:21:14.155Z,14.90
2023-03-07T05:23:41.463Z,12.93
2023-03-07T05:26:10.373Z,11.48
2023-03-07T05:28:37.901Z,14.52
2023-03-07T05:31:05.270Z,14.27
2023-03-07T05:33:33.321Z,11.70
2023-03-07T05:36:02.039Z,14.27
2023-03-07T05:38:29.996Z,14.02
2023-03-07T05:40:57.261Z,20.42
2023-03-07T05:43:24.664Z,14.20
2023-03-07T05:45:52.477Z,14.02
2023-03-07T05:48:19.689Z,13.05
2023-03-07T05:50:47.054Z,16.05
2023-03-07T05:53:14.798Z,13.95
2023-03-07T05:55:42.233Z,11.80
2023-03-07T05:58:09.574Z,9.90
2023-03-07T06:00:36.829Z,15.48
2023-03-07T06:03:04.847Z,13.25
2023-03-07T06:05:33.131Z,12.95
2023-03-07T06:08:00.282Z,16.70
2023-03-07T06:10:27.630Z,12.60
2023-03-07T06:12:56.404Z,16.20
2023-03-07T06:15:24.865Z,12.05
2023-03-07T06:18:00.840Z,9.88
2023-03-07T06:20:28.127Z,12.55
2023-03-07T06:22:55.835Z,15.63
2023-03-07T06:25:23.203Z,18.25
2023-03-07T06:27:50.461Z,13.73
2023-03-07T06:30:18.178Z,11.85
2023-03-07T06:32:45.535Z,12.63
2023-03-07T06:35:13.200Z,13.63
2023-03-07T06:37:40.618Z,12.80
2023-03-07T06:40:11.156Z,12.98
2023-03-07T06:42:39.817Z,12.88
2023-03-07T06:45:08.958Z,15.05
2023-03-07T06:47:36.096Z,14.05
2023-03-07T06:50:05.054Z,11.35
2023-03-07T06:52:34.137Z,9.00
2023-03-07T06:55:01.513Z,12.70
2023-03-07T06:57:33.616Z,10.35
2023-03-07T07:00:02.280Z,9.32
2023-03-07T07:02:33.389Z,12.07
2023-03-07T07:05:01.464Z,7.40
2023-03-07T07:07:31.662Z,9.93
2023-03-07T07:10:01.537Z,10.20
2023-03-07T07:12:31.003Z,12.98
2023-03-07T07:14:58.294Z,10.05
2023-03-07T07:17:25.559Z,12.48
2023-03-07T07:19:52.744Z,11.15
2023-03-07T07:22:20.146Z,9.82
2023-03-07T07:24:49.863Z,19.85
2023-03-07T07:27:17.241Z,13.95
2023-03-07T07:29:44.447Z,11.05
2023-03-07T07:32:11.855Z,11.00
2023-03-07T07:34:39.653Z,10.05
2023-03-07T07:37:07.013Z,9.63
2023-03-07T07:39:34.144Z,13.02
2023-03-07T07:42:01.311Z,11.10
2023-03-07T07:44:32.906Z,10.23
2023-03-07T07:47:10.238Z,12.98
2023-03-07T07:49:37.636Z,9.00
2023-03-07T07:52:05.073Z,8.68
2023-03-07T07:54:33.037Z,10.45
2023-03-07T07:57:00.274Z,11.65
2023-03-07T07:59:27.543Z,10.30
2023-03-07T08:01:54.869Z,15.32
2023-03-07T08:04:22.055Z,9.75
2023-03-07T08:06:52.232Z,9.35
2023-03-07T08:09:19.558Z,7.30
2023-03-07T08:11:46.849Z,7.68
2023-03-07T08:14:14.127Z,6.30
2023-03-07T08:16:41.246Z,5.75
2023-03-07T08:19:08.405Z,8.52
2023-03-07T08:21:35.842Z,7.63
2023-03-07T08:24:04.306Z,9.88
2023-03-07T08:26:32.262Z,7.38
2023-03-07T08:28:59.528Z,7.03
2023-03-07T08:31:27.067Z,7.63
2023-03-07T08:33:54.340Z,12.52
2023-03-07T08:36:21.816Z,10.90
2023-03-07T08:38:53.445Z,5.45
2023-03-07T08:41:22.906Z,7.00
2023-03-07T08:43:50.280Z,7.25
2023-03-07T08:46:17.865Z,6.70
2023-03-07T08:48:45.523Z,9.57
2023-03-07T08:51:16.094Z,8.43
2023-03-07T08:53:44.619Z,6.80
2023-03-07T08:56:14.807Z,8.25
2023-03-07T08:58:42.831Z,8.77
2023-03-07T09:01:10.439Z,5.47
2023-03-07T09:03:37.619Z,5.95
2023-03-07T09:06:06.130Z,7.57
2023-03-07T09:08:33.758Z,8.00
2023-03-07T09:11:03.730Z,8.68
2023-03-07T09:13:33.059Z,9.38
2023-03-07T09:16:05.278Z,10.20
2023-03-07T09:18:33.112Z,4.88
2023-03-07T09:21:01.201Z,8.98
2023-03-07T09:23:28.477Z,9.63
2023-03-07T09:25:58.984Z,6.85
2023-03-07T09:28:26.364Z,8.25
2023-03-07T09:30:54.255Z,7.93
2023-03-07T09:33:21.462Z,7.82
2023-03-07T09:35:48.860Z,7.88
2023-03-07T09:38:16.120Z,7.50
2023-03-07T09:40:47.370Z,6.80
2023-03-07T09:43:21.453Z,6.88
2023-03-07T09:46:22.276Z,11.65
2023-03-07T09:49:04.886Z,8.52
2023-03-07T09:51:38.006Z,9.25
2023-03-07T09:54:33.364Z,7.97
2023-03-07T09:57:02.901Z,10.05
2023-03-07T09:59:49.087Z,6.60
2023-03-07T10:02:29.846Z,7.88
2023-03-07T10:05:04.697Z,5.70
2023-03-07T10:07:33.573Z,5.38
2023-03-07T10:10:05.510Z,8.27
2023-03-07T10:12:49.379Z,5.35
2023-03-07T10:15:45.953Z,6.10
2023-03-07T10:18:39.541Z,7.90
2023-03-07T10:21:23.428Z,8.98
2023-03-07T10:24:16.511Z,7.38
2023-03-07T10:27:24.736Z,11.20
2023-03-07T10:29:58.254Z,8.27
2023-03-07T10:32:38.534Z,9.27
2023-03-07T10:35:11.714Z,9.73
2023-03-07T10:38:15.836Z,11.13
2023-03-07T10:40:46.145Z,11.10
2023-03-07T10:43:22.692Z,8.80
2023-03-07T10:45:49.826Z,9.93
2023-03-07T10:48:21.197Z,9.23
2023-03-07T10:51:01.205Z,12.23
2023-03-07T10:53:33.415Z,9.70
2023-03-07T10:56:15.179Z,8.50
2023-03-07T10:59:02.359Z,6.78
2023-03-07T11:01:31.198Z,9.57
2023-03-07T11:04:19.657Z,8.98
2023-03-07T11:06:58.648Z,9.35
2023-03-07T11:09:25.953Z,12.07
2023-03-07T11:12:00.234Z,9.25
2023-03-07T11:14:29.379Z,8.25
2023-03-07T11:16:59.704Z,9.07
2023-03-07T11:19:41.080Z,9.40
2023-03-07T11:22:23.333Z,8.18
2023-03-07T11:24:59.844Z,11.00
2023-03-07T11:27:35.234Z,8.18
2023-03-07T11:30:08.193Z,9.70
2023-03-07T11:32:41.717Z,7.68
2023-03-07T11:35:21.380Z,9.50
2023-03-07T11:38:16.222Z,8.18
2023-03-07T11:40:47.688Z,7.97
2023-03-07T11:43:22.119Z,13.20
2023-03-07T11:45:55.144Z,7.40
2023-03-07T11:48:37.336Z,8.88
2023-03-07T11:51:10.475Z,12.05
2023-03-07T11:54:18.706Z,12.00
2023-03-07T11:56:52.276Z,9.35
2023-03-07T11:59:56.905Z,12.68
2023-03-07T12:02:51.860Z,15.48
2023-03-07T12:05:43.017Z,19.45
2023-03-07T12:08:26.383Z,14.23
2023-03-07T12:11:02.303Z,12.77
2023-03-07T12:13:38.703Z,9.63
2023-03-07T12:16:13.197Z,12.38
2023-03-07T12:18:53.468Z,10.25
2023-03-07T12:21:26.224Z,9.43
2023-03-07T12:24:03.968Z,13.32
2023-03-07T12:26:52.713Z,11.75
2023-03-07T12:29:38.154Z,8.68
2023-03-07T12:32:12.389Z,6.70
2023-03-07T12:35:07.185Z,10.80
2023-03-07T12:37:46.007Z,9.75
2023-03-07T12:40:22.457Z,12.23
2023-03-07T12:43:19.652Z,9.65
2023-03-07T12:45:57.989Z,8.40
2023-03-07T12:48:29.809Z,7.80
2023-03-07T12:51:07.123Z,9.35
2023-03-07T12:53:49.688Z,7.90
2023-03-07T12:56:55.582Z,7.97
2023-03-07T13:02:16.900Z,10.23
2023-03-07T13:04:43.994Z,7.13
2023-03-07T13:07:22.752Z,11.65
2023-03-07T13:09:52.260Z,11.30
2023-03-07T13:12:29.909Z,8.73
2023-03-07T13:14:59.655Z,8.00
2023-03-07T13:17:35.759Z,7.03
2023-03-07T13:20:28.332Z,7.63
2023-03-07T13:22:58.729Z,10.88
2023-03-07T13:25:27.285Z,7.20
2023-03-07T13:27:58.733Z,6.75
2023-03-07T13:30:29.017Z,7.43
2023-03-07T13:33:01.632Z,10.23
2023-03-07T13:35:29.021Z,7.28
2023-03-07T13:38:13.799Z,7.22
2023-03-07T13:40:47.328Z,8.27
2023-03-07T13:43:24.994Z,7.63
2023-03-07T13:46:29.660Z,6.85
2023-03-07T13:48:56.796Z,8.15
2023-03-07T13:51:23.878Z,9.43
2023-03-07T13:53:54.433Z,9.88
2023-03-07T13:56:29.277Z,8.43
2023-03-07T14:01:58.929Z,9.68
2023-03-07T14:04:54.533Z,9.23
2023-03-07T14:10:22.446Z,11.77
2023-03-07T14:13:24.090Z,9.23
2023-03-07T14:16:18.253Z,10.40
2023-03-07T14:18:55.988Z,10.40
2023-03-07T14:21:41.233Z,9.30
2023-03-07T14:24:31.784Z,9.00
2023-03-07T14:27:04.217Z,10.80
2023-03-07T14:29:31.892Z,11.65
2023-03-07T14:32:01.104Z,9.43
2023-03-07T14:34:36.604Z,11.23
2023-03-07T14:37:09.081Z,11.40
2023-03-07T14:40:00.802Z,13.05
2023-03-07T14:42:43.284Z,12.05
2023-03-07T14:45:16.885Z,14.10
2023-03-07T14:47:59.347Z,11.00
2023-03-07T14:50:29.044Z,12.20
2023-03-07T14:53:17.550Z,12.15
2023-03-07T14:55:47.956Z,14.65
2023-03-07T14:58:19.293Z,12.88
2023-03-07T15:00:48.714Z,15.40
2023-03-07T15:03:16.354Z,16.13
2023-03-07T15:05:52.340Z,15.32
2023-03-07T15:08:35.281Z,14.10
2023-03-07T15:11:13.657Z,13.80
2023-03-07T15:14:02.027Z,11.48
2023-03-07T15:16:57.102Z,12.07
2023-03-07T15:19:49.610Z,14.32
2023-03-07T15:22:23.562Z,13.20
2023-03-07T15:24:52.081Z,13.13
2023-03-07T15:27:27.433Z,12.05
2023-03-07T15:29:55.479Z,13.05
2023-03-07T15:32:36.313Z,12.20
2023-03-07T15:35:24.165Z,12.25
2023-03-07T15:38:00.149Z,13.93
2023-03-07T15:40:36.162Z,14.02
2023-03-07T15:43:04.773Z,12.40
2023-03-07T15:45:38.717Z,11.50
2023-03-07T15:48:27.475Z,14.85
2023-03-07T15:51:06.660Z,15.55
2023-03-07T15:53:37.855Z,17.55
2023-03-07T15:56:22.588Z,14.95
2023-03-07T15:58:50.995Z,13.68
2023-03-07T16:01:26.461Z,16.33
2023-03-07T16:03:59.657Z,14.60
2023-03-07T16:06:42.761Z,16.50
2023-03-07T16:09:22.470Z,14.90
2023-03-07T16:11:49.744Z,18.35
2023-03-07T16:14:28.157Z,15.52
2023-03-07T16:17:01.147Z,16.73
2023-03-07T16:19:28.376Z,16.98
2023-03-07T16:21:56.179Z,18.17
2023-03-07T16:24:23.331Z,17.77
2023-03-07T16:26:50.737Z,17.45
2023-03-07T16:29:23.309Z,21.48
2023-03-07T16:31:50.996Z,18.23
2023-03-07T16:34:21.280Z,14.45
2023-03-07T16:36:48.589Z,11.45
2023-03-07T16:39:16.413Z,11.40
2023-03-07T16:41:48.987Z,18.33
2023-03-07T16:44:18.049Z,18.17
2023-03-07T16:46:51.882Z,18.02
2023-03-07T16:49:20.616Z,21.83
2023-03-07T16:52:03.104Z,20.88
2023-03-07T16:54:33.233Z,16.98
2023-03-07T16:57:02.512Z,22.48
2023-03-07T16:59:35.395Z,17.40
2023-03-07T17:02:10.949Z,22.10
2023-03-07T17:04:39.367Z,21.40
2023-03-07T17:07:16.071Z,20.95
2023-03-07T17:09:43.429Z,19.45
2023-03-07T17:12:11.435Z,19.00
2023-03-07T17:14:39.344Z,14.50
2023-03-07T17:17:07.437Z,15.23
2023-03-07T17:19:35.710Z,16.55
2023-03-07T17:22:03.596Z,15.88
2023-03-07T17:24:31.307Z,13.50
2023-03-07T17:27:00.737Z,14.88
2023-03-07T17:29:35.376Z,14.43
2023-03-07T17:34:32.601Z,19.08
2023-03-07T17:37:02.714Z,21.33
2023-03-07T17:39:30.869Z,16.05
2023-03-07T17:41:59.316Z,17.63
2023-03-07T17:44:27.042Z,19.23
2023-03-07T17:46:55.941Z,15.80
2023-03-07T17:49:23.823Z,21.20
2023-03-07T17:51:53.021Z,20.30
2023-03-07T17:54:20.393Z,16.00
2023-03-07T17:56:47.449Z,15.60
2023-03-07T17:59:14.581Z,16.10
2023-03-07T18:01:42.709Z,14.52
2023-03-07T18:04:09.882Z,14.48
2023-03-07T18:06:38.457Z,14.88
2023-03-07T18:09:08.096Z,12.93
2023-03-07T18:11:35.932Z,15.18
2023-03-07T18:14:03.786Z,16.50
2023-03-07T18:16:31.366Z,16.40
2023-03-07T18:19:00.669Z,14.55
2023-03-07T18:21:30.513Z,15.30
2023-03-07T18:23:58.274Z,15.00
2023-03-07T18:26:25.636Z,15.60
2023-03-07T18:28:53.995Z,14.60
2023-03-07T18:31:25.452Z,13.93
2023-03-07T18:33:54.280Z,14.50
2023-03-07T18:36:28.050Z,15.77
2023-03-07T18:38:55.801Z,16.65
2023-03-07T18:41:44.497Z,16.15
2023-03-07T18:44:12.326Z,17.60
2023-03-07T18:46:39.657Z,18.55
2023-03-07T18:49:07.196Z,15.45
2023-03-07T18:51:34.458Z,15.55
2023-03-07T18:54:03.786Z,17.05
2023-03-07T18:56:30.914Z,17.20
2023-03-07T18:58:59.246Z,16.10
2023-03-07T19:01:32.316Z,14.75
2023-03-07T19:04:03.314Z,15.35
2023-03-07T19:06:34.742Z,14.55
2023-03-07T19:09:03.985Z,14.07
2023-03-07T19:11:32.021Z,14.80
2023-03-07T19:14:05.678Z,13.73
2023-03-07T19:16:33.036Z,13.20
2023-03-07T19:19:00.268Z,12.88
2023-03-07T19:21:30.162Z,11.68
2023-03-07T19:24:00.274Z,12.40
2023-03-07T19:26:28.120Z,12.20
2023-03-07T19:28:56.780Z,13.05
2023-03-07T19:31:29.742Z,10.85
2023-03-07T19:33:58.114Z,13.30
2023-03-07T19:36:28.617Z,12.02
2023-03-07T19:38:59.259Z,13.30
2023-03-07T19:41:28.857Z,12.75
2023-03-07T19:43:57.260Z,13.43
2023-03-07T19:46:24.909Z,10.98
2023-03-07T19:48:54.479Z,14.70
2023-03-07T19:51:25.121Z,13.48
2023-03-07T19:53:57.010Z,15.27
2023-03-07T19:56:27.817Z,12.00
2023-03-07T19:58:55.869Z,10.27
2023-03-07T20:01:23.711Z,13.70
2023-03-07T20:03:51.836Z,11.93
2023-03-07T20:06:24.672Z,13.85
2023-03-07T20:08:54.584Z,12.63
2023-03-07T20:11:27.222Z,15.45
2023-03-07T20:13:57.148Z,13.38
2023-03-07T20:16:29.586Z,9.40
2023-03-07T20:19:00.108Z,12.82
2023-03-07T20:21:29.123Z,12.02
2023-03-07T20:24:00.134Z,13.07
2023-03-07T20:26:31.628Z,11.30
2023-03-07T20:28:59.825Z,11.30
2023-03-07T20:31:28.780Z,10.68
2023-03-07T20:33:58.868Z,10.38
2023-03-07T20:36:29.339Z,10.02
2023-03-07T20:38:58.980Z,10.32
2023-03-07T20:41:29.213Z,9.93
2023-03-07T20:44:09.089Z,8.75
2023-03-07T20:46:37.931Z,10.45
2023-03-07T20:49:05.541Z,8.77
2023-03-07T20:51:35.392Z,9.27
2023-03-07T20:54:08.454Z,9.13
2023-03-07T20:56:37.321Z,8.73
2023-03-07T20:59:05.293Z,10.50
2023-03-07T21:01:34.015Z,10.13
2023-03-07T21:04:08.160Z,7.38
2023-03-07T21:06:36.825Z,7.70
2023-03-07T21:09:10.233Z,8.82
2023-03-07T21:14:09.421Z,9.43
2023-03-07T21:16:36.835Z,7.82
2023-03-07T21:19:06.024Z,10.85
2023-03-07T21:21:35.339Z,8.02
2023-03-07T21:24:03.252Z,10.95
2023-03-07T21:26:34.566Z,8.85
2023-03-07T21:29:11.648Z,12.07
2023-03-07T21:31:39.251Z,11.38
2023-03-07T21:34:08.790Z,10.23
2023-03-07T21:36:36.222Z,10.65
2023-03-07T21:39:05.693Z,10.23
2023-03-07T21:41:32.872Z,10.85
2023-03-07T21:44:00.754Z,8.57
2023-03-07T21:46:28.033Z,8.23
2023-03-07T21:48:57.908Z,8.48
2023-03-07T21:51:25.176Z,10.45
2023-03-07T21:53:52.694Z,11.00
2023-03-07T21:56:24.132Z,8.77
2023-03-07T21:58:52.658Z,8.20
2023-03-07T22:01:23.739Z,10.45
2023-03-07T22:03:58.733Z,8.88
2023-03-07T22:06:27.246Z,7.38
2023-03-07T22:08:54.714Z,9.25
2023-03-07T22:11:23.087Z,10.73
2023-03-07T22:13:50.573Z,8.45
2023-03-07T22:16:23.458Z,7.55
2023-03-07T22:18:57.634Z,8.05
2023-03-07T22:21:26.709Z,7.20
2023-03-07T22:24:01.045Z,7.75
2023-03-07T22:26:30.347Z,7.53
2023-03-07T22:28:58.208Z,7.07
2023-03-07T22:31:26.173Z,8.98
2023-03-07T22:33:53.287Z,7.82
2023-03-07T22:36:21.472Z,7.70
2023-03-07T22:38:54.753Z,11.10
2023-03-07T22:41:23.300Z,9.02
2023-03-07T22:43:50.323Z,9.07
2023-03-07T22:46:17.443Z,9.75
2023-03-07T22:48:45.807Z,7.60
2023-03-07T22:51:20.411Z,9.93
2023-03-07T22:53:48.039Z,8.90
2023-03-07T22:56:23.382Z,8.65
2023-03-07T22:58:50.947Z,9.18
2023-03-07T23:01:20.965Z,9.50
2023-03-07T23:03:54.110Z,10.55
2023-03-07T23:06:23.140Z,8.68
2023-03-07T23:08:52.784Z,9.82
2023-03-07T23:11:23.162Z,7.72
2023-03-07T23:13:50.490Z,9.30
2023-03-07T23:16:20.893Z,8.15
2023-03-07T23:18:55.206Z,9.82
2023-03-07T23:21:25.984Z,8.63
2023-03-07T23:23:54.594Z,7.90
2023-03-07T23:26:25.454Z,10.02
2023-03-07T23:28:52.491Z,10.30
2023-03-07T23:31:25.813Z,9.13
2023-03-07T23:34:01.110Z,9.02
2023-03-07T23:36:30.350Z,8.68
2023-03-07T23:38:58.856Z,10.45
2023-03-07T23:41:27.048Z,8.07
2023-03-07T23:43:56.313Z,9.23
2023-03-07T23:46:24.059Z,8.02
2023-03-07T23:48:52.027Z,8.63
2023-03-07T23:51:20.577Z,8.90
2023-03-07T23:53:47.717Z,14.90
2023-03-07T23:56:15.206Z,7.75
2023-03-07T23:58:44.180Z,8.60
